createdAt,value
2019-05-19T00:00:01.376Z,13.88
2019-05-19T00:01:01.282Z,13.94
2019-05-19T00:02:01.284Z,13.84
2019-05-19T00:03:01.084Z,13.87
2019-05-19T00:04:00.988Z,13.87
2019-05-19T00:05:00.908Z,13.90
2019-05-19T00:06:00.814Z,13.83
2019-05-19T00:07:00.703Z,13.88
2019-05-19T00:08:00.610Z,13.87
2019-05-19T00:09:00.632Z,13.93
2019-05-19T00:10:00.420Z,13.88
2019-05-19T00:11:00.338Z,13.94
2019-05-19T00:12:00.233Z,14.01
2019-05-19T00:13:00.180Z,13.93
2019-05-19T00:14:00.046Z,13.81
2019-05-19T00:14:59.949Z,13.86
2019-05-19T00:15:59.970Z,13.88
2019-05-19T00:16:59.759Z,13.87
2019-05-19T00:17:59.665Z,13.75
2019-05-19T00:18:59.569Z,13.81
2019-05-19T00:19:59.475Z,13.81
2019-05-19T00:20:59.394Z,13.83
2019-05-19T00:21:59.285Z,13.86
2019-05-19T00:22:59.295Z,13.94
2019-05-19T00:23:59.922Z,13.86
2019-05-19T00:24:59.002Z,13.81
2019-05-19T00:25:58.931Z,13.72
2019-05-19T00:26:58.813Z,13.73
2019-05-19T00:27:58.732Z,13.61
2019-05-19T00:28:58.626Z,13.87
2019-05-19T00:29:58.633Z,13.84
2019-05-19T00:30:58.451Z,13.88
2019-05-19T00:31:58.385Z,13.75
2019-05-19T00:32:58.250Z,13.87
2019-05-19T00:33:58.157Z,13.75
2019-05-19T00:34:58.056Z,13.72
2019-05-19T00:35:57.977Z,13.79
2019-05-19T00:36:57.971Z,13.76
2019-05-19T00:37:57.812Z,13.68
2019-05-19T00:38:57.679Z,13.72
2019-05-19T00:39:57.585Z,13.81
2019-05-19T00:40:57.490Z,13.75
2019-05-19T00:41:57.410Z,13.81
2019-05-19T00:42:57.300Z,13.76
2019-05-19T00:43:57.307Z,13.79
2019-05-19T00:44:57.114Z,13.73
2019-05-19T00:45:57.018Z,13.75
2019-05-19T00:46:56.958Z,13.65
2019-05-19T00:47:56.829Z,13.72
2019-05-19T00:48:56.732Z,13.62
2019-05-19T00:49:56.636Z,13.71
2019-05-19T00:50:56.545Z,13.71
2019-05-19T00:51:56.468Z,13.61
2019-05-19T00:52:56.354Z,13.63
2019-05-19T00:53:56.257Z,13.63
2019-05-19T00:54:56.165Z,13.57
2019-05-19T00:55:56.077Z,13.59
2019-05-19T00:56:55.989Z,13.48
2019-05-19T00:57:55.880Z,13.57
2019-05-19T00:58:55.786Z,13.63
2019-05-19T00:59:55.689Z,13.63
2019-05-19T01:00:55.597Z,13.59
2019-05-19T01:01:55.519Z,13.57
2019-05-19T01:02:55.408Z,13.63
2019-05-19T01:03:55.313Z,13.62
2019-05-19T01:04:55.221Z,13.65
2019-05-19T01:05:55.120Z,13.61
2019-05-19T01:06:55.042Z,13.54
2019-05-19T01:07:54.934Z,13.63
2019-05-19T01:08:54.837Z,13.55
2019-05-19T01:09:54.744Z,13.63
2019-05-19T01:10:54.649Z,13.68
2019-05-19T01:11:54.568Z,13.61
2019-05-19T01:12:54.459Z,13.54
2019-05-19T01:13:54.370Z,13.61
2019-05-19T01:14:54.275Z,13.51
2019-05-19T01:15:54.177Z,13.61
2019-05-19T01:16:54.095Z,13.59
2019-05-19T01:17:53.987Z,13.59
2019-05-19T01:18:53.891Z,13.62
2019-05-19T01:19:56.060Z,13.68
2019-05-19T01:20:53.700Z,13.65
2019-05-19T01:21:53.623Z,13.62
2019-05-19T01:22:53.512Z,13.63
2019-05-19T01:23:53.418Z,13.66
2019-05-19T01:24:53.321Z,13.66
2019-05-19T01:25:53.231Z,13.47
2019-05-19T01:26:53.148Z,13.54
2019-05-19T01:27:53.043Z,13.51
2019-05-19T01:28:52.946Z,13.48
2019-05-19T01:29:52.846Z,13.47
2019-05-19T01:30:52.754Z,13.50
2019-05-19T01:31:52.672Z,13.48
2019-05-19T01:32:52.565Z,13.62
2019-05-19T01:33:52.469Z,13.59
2019-05-19T01:34:52.375Z,13.62
2019-05-19T01:35:52.281Z,13.51
2019-05-19T01:36:52.199Z,13.61
2019-05-19T01:37:52.092Z,13.57
2019-05-19T01:38:51.995Z,13.48
2019-05-19T01:39:51.900Z,13.48
2019-05-19T01:40:51.806Z,13.51
2019-05-19T01:41:51.725Z,13.48
2019-05-19T01:42:51.615Z,13.47
2019-05-19T01:43:51.522Z,13.47
2019-05-19T01:44:51.427Z,13.51
2019-05-19T01:45:51.331Z,13.46
2019-05-19T01:46:51.241Z,13.59
2019-05-19T01:47:51.172Z,13.61
2019-05-19T01:48:51.049Z,13.61
2019-05-19T01:49:50.979Z,13.66
2019-05-19T01:50:50.857Z,13.62
2019-05-19T01:51:50.766Z,13.63
2019-05-19T01:52:50.683Z,13.65
2019-05-19T01:53:50.572Z,13.66
2019-05-19T01:54:50.478Z,13.61
2019-05-19T01:55:50.382Z,13.51
2019-05-19T01:56:50.289Z,13.53
2019-05-19T01:57:50.221Z,13.32
2019-05-19T01:58:50.099Z,13.31
2019-05-19T01:59:50.004Z,13.38
2019-05-19T02:00:49.909Z,13.25
2019-05-19T02:01:49.812Z,13.28
2019-05-19T02:02:49.733Z,13.29
2019-05-19T02:03:49.630Z,13.28
2019-05-19T02:04:49.529Z,13.27
2019-05-19T02:05:49.434Z,13.28
2019-05-19T02:06:49.459Z,13.24
2019-05-19T02:07:49.256Z,13.27
2019-05-19T02:08:49.151Z,13.22
2019-05-19T02:09:49.051Z,13.28
2019-05-19T02:10:48.957Z,13.32
2019-05-19T02:11:48.865Z,13.25
2019-05-19T02:12:48.782Z,13.24
2019-05-19T02:13:48.777Z,13.06
2019-05-19T02:14:48.579Z,13.13
2019-05-19T02:15:48.487Z,13.22
2019-05-19T02:16:48.388Z,13.19
2019-05-19T02:17:48.310Z,13.22
2019-05-19T02:18:48.199Z,13.25
2019-05-19T02:19:48.103Z,13.09
2019-05-19T02:20:48.110Z,13.09
2019-05-19T02:21:47.914Z,13.10
2019-05-19T02:22:47.836Z,13.16
2019-05-19T02:23:47.724Z,13.01
2019-05-19T02:24:47.630Z,13.01
2019-05-19T02:25:47.533Z,13.03
2019-05-19T02:26:47.458Z,12.96
2019-05-19T02:27:47.415Z,13.01
2019-05-19T02:28:47.250Z,13.03
2019-05-19T02:29:47.153Z,13.04
2019-05-19T02:30:47.061Z,12.95
2019-05-19T02:31:46.962Z,12.99
2019-05-19T02:32:46.884Z,12.94
2019-05-19T02:33:46.774Z,12.91
2019-05-19T02:34:46.717Z,12.88
2019-05-19T02:35:46.584Z,12.88
2019-05-19T02:36:46.489Z,12.94
2019-05-19T02:37:46.404Z,12.89
2019-05-19T02:38:46.297Z,12.92
2019-05-19T02:39:46.200Z,12.87
2019-05-19T02:40:46.108Z,12.89
2019-05-19T02:41:46.012Z,12.87
2019-05-19T02:42:45.931Z,12.89
2019-05-19T02:43:45.820Z,12.85
2019-05-19T02:44:45.728Z,12.84
2019-05-19T02:45:45.628Z,12.85
2019-05-19T02:46:45.534Z,12.79
2019-05-19T02:47:45.441Z,12.79
2019-05-19T02:48:45.358Z,12.85
2019-05-19T02:49:45.549Z,12.81
2019-05-19T02:50:52.333Z,12.77
2019-05-19T02:51:45.061Z,12.79
2019-05-19T02:52:44.963Z,12.85
2019-05-19T02:53:44.881Z,12.87
2019-05-19T02:54:44.779Z,12.85
2019-05-19T02:55:44.676Z,12.88
2019-05-19T02:56:44.699Z,12.79
2019-05-19T02:57:44.494Z,12.87
2019-05-19T02:58:44.407Z,12.87
2019-05-19T02:59:44.299Z,12.77
2019-05-19T03:00:44.198Z,12.88
2019-05-19T03:01:44.105Z,12.81
2019-05-19T03:02:44.013Z,12.81
2019-05-19T03:03:44.034Z,12.79
2019-05-19T03:04:43.822Z,12.77
2019-05-19T03:05:43.722Z,12.85
2019-05-19T03:06:43.646Z,12.77
2019-05-19T03:07:43.532Z,12.77
2019-05-19T03:08:43.453Z,12.79
2019-05-19T03:09:43.343Z,12.84
2019-05-19T03:10:43.353Z,12.88
2019-05-19T03:11:43.150Z,12.84
2019-05-19T03:12:43.058Z,12.79
2019-05-19T03:13:42.973Z,12.80
2019-05-19T03:14:42.868Z,12.81
2019-05-19T03:15:42.821Z,12.67
2019-05-19T03:16:42.774Z,12.81
2019-05-19T03:17:42.684Z,12.84
2019-05-19T03:18:42.495Z,12.63
2019-05-19T03:19:42.389Z,12.80
2019-05-19T03:20:42.303Z,12.80
2019-05-19T03:21:42.197Z,12.85
2019-05-19T03:22:42.104Z,12.73
2019-05-19T03:23:42.020Z,12.73
2019-05-19T03:24:42.012Z,12.70
2019-05-19T03:25:44.231Z,12.67
2019-05-19T03:26:41.719Z,12.69
2019-05-19T03:27:41.631Z,12.77
2019-05-19T03:28:41.548Z,12.73
2019-05-19T03:29:41.451Z,12.69
2019-05-19T03:30:41.376Z,12.66
2019-05-19T03:31:41.346Z,12.70
2019-05-19T03:32:41.152Z,12.66
2019-05-19T03:33:41.076Z,12.58
2019-05-19T03:34:40.955Z,12.63
2019-05-19T03:35:40.860Z,12.69
2019-05-19T03:36:40.765Z,12.66
2019-05-19T03:37:40.668Z,12.66
2019-05-19T03:38:40.595Z,12.63
2019-05-19T03:39:40.481Z,12.62
2019-05-19T03:40:40.387Z,12.63
2019-05-19T03:41:40.288Z,12.59
2019-05-19T03:42:40.192Z,12.61
2019-05-19T03:43:40.114Z,12.52
2019-05-19T03:44:40.002Z,12.67
2019-05-19T03:45:40.022Z,12.66
2019-05-19T03:46:39.812Z,12.59
2019-05-19T03:47:39.724Z,12.66
2019-05-19T03:48:39.633Z,12.54
2019-05-19T03:49:39.524Z,12.51
2019-05-19T03:50:39.434Z,12.58
2019-05-19T03:51:39.341Z,12.66
2019-05-19T03:52:39.242Z,12.58
2019-05-19T03:53:39.159Z,12.61
2019-05-19T03:54:39.050Z,12.56
2019-05-19T03:55:38.954Z,12.55
2019-05-19T03:56:38.857Z,12.51
2019-05-19T03:57:38.762Z,12.52
2019-05-19T03:58:38.679Z,12.56
2019-05-19T03:59:38.571Z,12.52
2019-05-19T04:00:38.475Z,12.59
2019-05-19T04:01:38.379Z,12.55
2019-05-19T04:02:38.297Z,12.58
2019-05-19T04:03:38.214Z,12.56
2019-05-19T04:04:38.097Z,12.58
2019-05-19T04:05:38.000Z,12.61
2019-05-19T04:06:37.906Z,12.56
2019-05-19T04:07:37.807Z,12.59
2019-05-19T04:08:37.728Z,12.66
2019-05-19T04:09:37.615Z,12.61
2019-05-19T04:10:37.532Z,12.62
2019-05-19T04:11:37.430Z,12.63
2019-05-19T04:12:37.332Z,12.63
2019-05-19T04:13:37.250Z,12.63
2019-05-19T04:14:37.139Z,12.63
2019-05-19T04:15:37.047Z,12.66
2019-05-19T04:16:36.962Z,12.70
2019-05-19T04:17:36.855Z,12.79
2019-05-19T04:18:36.760Z,12.77
2019-05-19T04:19:36.678Z,12.69
2019-05-19T04:20:36.581Z,12.84
2019-05-19T04:21:48.288Z,12.73
2019-05-19T04:22:36.377Z,12.69
2019-05-19T04:23:36.294Z,12.69
2019-05-19T04:24:36.202Z,12.80
2019-05-19T04:25:36.095Z,12.80
2019-05-19T04:26:35.999Z,12.87
2019-05-19T04:27:35.903Z,12.80
2019-05-19T04:28:35.814Z,12.85
2019-05-19T04:29:39.181Z,12.77
2019-05-19T04:30:35.627Z,12.84
2019-05-19T04:31:35.524Z,12.80
2019-05-19T04:32:35.435Z,12.77
2019-05-19T04:33:35.336Z,12.69
2019-05-19T04:34:35.253Z,12.71
2019-05-19T04:35:35.161Z,12.69
2019-05-19T04:36:35.048Z,12.84
2019-05-19T04:37:34.957Z,12.76
2019-05-19T04:38:34.861Z,12.81
2019-05-19T04:39:34.777Z,12.69
2019-05-19T04:40:34.684Z,12.66
2019-05-19T04:41:34.578Z,12.79
2019-05-19T04:42:34.483Z,12.76
2019-05-19T04:43:34.385Z,12.73
2019-05-19T04:44:34.302Z,12.59
2019-05-19T04:45:34.193Z,12.70
2019-05-19T04:46:34.102Z,12.67
2019-05-19T04:47:34.006Z,12.73
2019-05-19T04:48:33.909Z,12.88
2019-05-19T04:49:33.830Z,12.94
2019-05-19T04:50:33.720Z,12.91
2019-05-19T04:51:33.634Z,12.94
2019-05-19T04:52:33.536Z,12.92
2019-05-19T04:53:33.437Z,13.03
2019-05-19T04:54:33.355Z,13.07
2019-05-19T04:55:33.247Z,13.04
2019-05-19T04:56:33.152Z,13.16
2019-05-19T04:57:33.062Z,13.22
2019-05-19T04:58:32.961Z,13.21
2019-05-19T04:59:32.885Z,13.28
2019-05-19T05:00:32.773Z,13.36
2019-05-19T05:01:32.677Z,13.27
2019-05-19T05:02:32.589Z,13.51
2019-05-19T05:03:32.490Z,13.51
2019-05-19T05:04:32.413Z,13.63
2019-05-19T05:05:32.349Z,13.57
2019-05-19T05:06:32.206Z,13.72
2019-05-19T05:07:32.129Z,13.83
2019-05-19T05:08:32.125Z,13.84
2019-05-19T05:09:31.940Z,13.84
2019-05-19T05:10:31.829Z,13.86
2019-05-19T05:11:31.735Z,13.91
2019-05-19T05:12:31.645Z,13.93
2019-05-19T05:13:31.544Z,13.90
2019-05-19T05:14:31.467Z,13.87
2019-05-19T05:15:31.469Z,13.79
2019-05-19T05:16:31.271Z,13.86
2019-05-19T05:17:31.173Z,13.88
2019-05-19T05:18:31.092Z,13.72
2019-05-19T05:19:30.999Z,13.83
2019-05-19T05:20:30.890Z,13.90
2019-05-19T05:21:30.797Z,13.98
2019-05-19T05:22:30.823Z,14.13
2019-05-19T05:23:30.610Z,14.09
2019-05-19T05:24:30.530Z,14.11
2019-05-19T05:25:30.423Z,14.11
2019-05-19T05:26:30.329Z,14.09
2019-05-19T05:27:30.235Z,14.09
2019-05-19T05:28:30.144Z,14.13
2019-05-19T05:29:30.172Z,14.12
2019-05-19T05:30:29.957Z,14.23
2019-05-19T05:31:29.862Z,14.08
2019-05-19T05:32:29.787Z,14.20
2019-05-19T05:33:29.685Z,14.12
2019-05-19T05:34:29.598Z,14.11
2019-05-19T05:35:29.491Z,14.12
2019-05-19T05:36:29.502Z,14.02
2019-05-19T05:37:29.304Z,14.11
2019-05-19T05:38:29.209Z,14.04
2019-05-19T05:39:29.132Z,13.98
2019-05-19T05:40:29.024Z,13.91
2019-05-19T05:41:28.945Z,14.02
2019-05-19T05:42:31.680Z,14.01
2019-05-19T05:43:28.852Z,13.94
2019-05-19T05:44:28.655Z,13.93
2019-05-19T05:45:28.572Z,13.96
2019-05-19T05:46:28.465Z,13.98
2019-05-19T05:47:28.371Z,13.94
2019-05-19T05:48:28.284Z,14.01
2019-05-19T05:49:28.188Z,14.04
2019-05-19T05:50:28.210Z,14.13
2019-05-19T05:51:27.999Z,14.11
2019-05-19T05:52:38.081Z,14.11
2019-05-19T05:53:27.815Z,14.06
2019-05-19T05:54:27.720Z,13.99
2019-05-19T05:55:27.685Z,14.04
2019-05-19T05:56:27.532Z,14.16
2019-05-19T05:57:27.551Z,14.13
2019-05-19T05:58:27.345Z,14.05
2019-05-19T05:59:27.254Z,14.17
2019-05-19T06:00:27.174Z,14.21
2019-05-19T06:01:27.074Z,14.30
2019-05-19T06:02:26.977Z,14.31
2019-05-19T06:03:26.893Z,14.39
2019-05-19T06:04:26.902Z,14.49
2019-05-19T06:05:26.707Z,14.48
2019-05-19T06:06:26.600Z,14.61
2019-05-19T06:07:26.504Z,14.72
2019-05-19T06:08:26.410Z,14.86
2019-05-19T06:09:26.317Z,14.97
2019-05-19T06:10:26.239Z,15.09
2019-05-19T06:11:26.235Z,15.00
2019-05-19T06:12:26.039Z,14.98
2019-05-19T06:13:25.944Z,15.07
2019-05-19T06:14:25.861Z,14.98
2019-05-19T06:15:25.777Z,14.95
2019-05-19T06:16:25.668Z,15.00
2019-05-19T06:17:25.574Z,15.12
2019-05-19T06:18:25.479Z,15.05
2019-05-19T06:19:25.387Z,15.13
2019-05-19T06:20:25.311Z,15.16
2019-05-19T06:21:25.205Z,15.18
2019-05-19T06:22:25.109Z,15.28
2019-05-19T06:23:25.027Z,15.34
2019-05-19T06:24:24.924Z,15.37
2019-05-19T06:25:24.999Z,15.41
2019-05-19T06:26:24.740Z,15.48
2019-05-19T06:27:24.644Z,15.46
2019-05-19T06:28:24.552Z,15.44
2019-05-19T06:29:24.457Z,15.52
2019-05-19T06:30:24.384Z,15.49
2019-05-19T06:31:24.275Z,15.52
2019-05-19T06:32:24.194Z,15.58
2019-05-19T06:33:24.087Z,15.70
2019-05-19T06:34:23.993Z,15.78
2019-05-19T06:35:23.919Z,15.91
2019-05-19T06:36:23.815Z,16.10
2019-05-19T06:37:23.718Z,16.18
2019-05-19T06:38:23.734Z,16.47
2019-05-19T06:39:23.536Z,16.57
2019-05-19T06:40:23.465Z,16.72
2019-05-19T06:41:23.349Z,16.72
2019-05-19T06:42:23.256Z,16.72
2019-05-19T06:43:23.169Z,16.59
2019-05-19T06:44:23.076Z,16.44
2019-05-19T06:45:23.026Z,16.41
2019-05-19T06:46:22.893Z,16.25
2019-05-19T06:47:22.810Z,16.29
2019-05-19T06:48:22.707Z,16.26
2019-05-19T06:49:22.615Z,16.18
2019-05-19T06:50:22.539Z,15.89
2019-05-19T06:51:22.434Z,15.85
2019-05-19T06:52:22.347Z,15.85
2019-05-19T06:53:22.251Z,15.85
2019-05-19T06:54:22.162Z,15.86
2019-05-19T06:55:22.099Z,15.93
2019-05-19T06:56:21.984Z,16.03
2019-05-19T06:57:21.886Z,16.07
2019-05-19T06:58:21.796Z,16.23
2019-05-19T06:59:21.704Z,16.33
2019-05-19T07:00:21.614Z,16.32
2019-05-19T07:01:21.539Z,16.51
2019-05-19T07:02:21.437Z,16.50
2019-05-19T07:03:21.341Z,16.63
2019-05-19T07:04:21.249Z,16.67
2019-05-19T07:05:21.157Z,16.82
2019-05-19T07:06:21.084Z,17.02
2019-05-19T07:07:20.974Z,16.96
2019-05-19T07:08:20.883Z,16.90
2019-05-19T07:09:20.792Z,16.84
2019-05-19T07:10:20.707Z,16.87
2019-05-19T07:11:20.719Z,16.95
2019-05-19T07:12:20.526Z,17.22
2019-05-19T07:13:20.434Z,17.40
2019-05-19T07:14:20.338Z,17.40
2019-05-19T07:15:20.254Z,17.70
2019-05-19T07:16:20.175Z,17.63
2019-05-19T07:17:20.071Z,17.57
2019-05-19T07:18:19.979Z,17.63
2019-05-19T07:19:19.891Z,17.65
2019-05-19T07:20:19.804Z,17.79
2019-05-19T07:21:19.729Z,17.77
2019-05-19T07:22:19.648Z,17.91
2019-05-19T07:23:27.751Z,17.66
2019-05-19T07:24:19.441Z,17.54
2019-05-19T07:25:19.390Z,17.74
2019-05-19T07:26:19.277Z,18.05
2019-05-19T07:27:19.172Z,18.20
2019-05-19T07:28:19.096Z,18.13
2019-05-19T07:29:18.993Z,18.21
2019-05-19T07:30:18.906Z,18.17
2019-05-19T07:31:18.830Z,18.17
2019-05-19T07:32:18.727Z,18.21
2019-05-19T07:33:18.638Z,18.49
2019-05-19T07:34:18.555Z,18.72
2019-05-19T07:35:18.476Z,18.72
2019-05-19T07:36:18.386Z,18.74
2019-05-19T07:37:18.282Z,18.89
2019-05-19T07:38:18.194Z,19.01
2019-05-19T07:39:18.105Z,19.09
2019-05-19T07:40:18.019Z,19.07
2019-05-19T07:41:17.941Z,18.87
2019-05-19T07:42:17.841Z,19.21
2019-05-19T07:43:17.773Z,19.15
2019-05-19T07:44:17.668Z,18.93
2019-05-19T07:45:17.576Z,19.21
2019-05-19T07:46:17.509Z,19.43
2019-05-19T07:47:17.399Z,19.55
2019-05-19T07:48:17.313Z,19.61
2019-05-19T07:49:17.232Z,19.75
2019-05-19T07:50:17.138Z,19.86
2019-05-19T07:51:19.521Z,19.87
2019-05-19T07:52:16.961Z,20.04
2019-05-19T07:53:16.875Z,20.05
2019-05-19T07:54:16.789Z,19.89
2019-05-19T07:55:16.808Z,20.10
2019-05-19T07:56:16.626Z,20.00
2019-05-19T07:57:16.527Z,20.10
2019-05-19T07:58:16.442Z,20.16
2019-05-19T07:59:16.354Z,20.25
2019-05-19T08:00:16.264Z,20.57
2019-05-19T08:01:16.233Z,20.83
2019-05-19T08:02:16.198Z,20.97
2019-05-19T08:03:16.009Z,20.96
2019-05-19T08:04:15.918Z,20.97
2019-05-19T08:05:15.846Z,20.94
2019-05-19T08:06:15.810Z,20.93
2019-05-19T08:07:15.663Z,20.76
2019-05-19T08:08:15.593Z,20.44
2019-05-19T08:09:15.606Z,20.23
2019-05-19T08:10:15.399Z,20.01
2019-05-19T08:11:15.314Z,20.08
2019-05-19T08:12:15.242Z,20.07
2019-05-19T08:13:15.141Z,20.13
2019-05-19T08:14:15.054Z,20.04
2019-05-19T08:15:14.971Z,20.17
2019-05-19T08:16:14.992Z,20.16
2019-05-19T08:17:14.813Z,20.27
2019-05-19T08:18:14.710Z,20.00
2019-05-19T08:19:14.648Z,20.15
2019-05-19T08:20:14.539Z,20.27
2019-05-19T08:21:14.454Z,20.33
2019-05-19T08:22:14.382Z,20.44
2019-05-19T08:23:14.288Z,20.56
2019-05-19T08:24:14.198Z,20.44
2019-05-19T08:25:14.115Z,20.53
2019-05-19T08:26:14.039Z,20.69
2019-05-19T08:27:13.971Z,20.76
2019-05-19T08:28:13.877Z,20.57
2019-05-19T08:29:13.771Z,20.58
2019-05-19T08:30:13.702Z,20.75
2019-05-19T08:31:13.597Z,20.57
2019-05-19T08:32:13.522Z,20.87
2019-05-19T08:33:13.422Z,20.82
2019-05-19T08:34:13.361Z,20.63
2019-05-19T08:35:13.253Z,20.61
2019-05-19T08:36:13.168Z,20.81
2019-05-19T08:37:13.098Z,20.91
2019-05-19T08:38:13.008Z,21.13
2019-05-19T08:39:12.910Z,21.27
2019-05-19T08:40:12.828Z,20.72
2019-05-19T08:41:12.742Z,20.57
2019-05-19T08:42:12.669Z,20.82
2019-05-19T08:43:12.570Z,20.82
2019-05-19T08:44:12.485Z,21.26
2019-05-19T08:45:12.402Z,21.51
2019-05-19T08:46:12.317Z,21.70
2019-05-19T08:47:12.245Z,21.49
2019-05-19T08:48:12.145Z,21.56
2019-05-19T08:49:12.057Z,21.81
2019-05-19T08:50:11.973Z,21.40
2019-05-19T08:51:11.887Z,21.36
2019-05-19T08:52:11.818Z,21.49
2019-05-19T08:53:11.723Z,21.31
2019-05-19T08:54:15.207Z,21.18
2019-05-19T08:55:11.555Z,21.22
2019-05-19T08:56:11.463Z,21.19
2019-05-19T08:57:11.392Z,21.52
2019-05-19T08:58:11.293Z,21.68
2019-05-19T08:59:11.207Z,22.44
2019-05-19T09:00:11.126Z,22.38
2019-05-19T09:01:11.040Z,22.02
2019-05-19T09:02:10.969Z,21.83
2019-05-19T09:03:10.886Z,22.02
2019-05-19T09:04:10.786Z,21.98
2019-05-19T09:05:10.705Z,21.82
2019-05-19T09:06:10.720Z,21.73
2019-05-19T09:07:10.535Z,21.58
2019-05-19T09:08:10.466Z,21.16
2019-05-19T09:09:10.370Z,21.42
2019-05-19T09:10:10.278Z,20.85
2019-05-19T09:11:10.199Z,20.51
2019-05-19T09:12:10.122Z,20.48
2019-05-19T09:13:10.127Z,20.46
2019-05-19T09:14:09.964Z,20.58
2019-05-19T09:15:09.866Z,21.01
2019-05-19T09:16:09.773Z,21.26
2019-05-19T09:17:09.686Z,21.49
2019-05-19T09:18:09.617Z,21.64
2019-05-19T09:19:09.642Z,21.52
2019-05-19T09:20:09.433Z,21.51
2019-05-19T09:21:09.352Z,21.55
2019-05-19T09:22:09.277Z,21.67
2019-05-19T09:23:09.194Z,21.73
2019-05-19T09:24:09.095Z,21.56
2019-05-19T09:25:09.009Z,21.64
2019-05-19T09:26:08.926Z,21.68
2019-05-19T09:27:08.839Z,21.67
2019-05-19T09:28:08.771Z,21.90
2019-05-19T09:29:08.669Z,21.68
2019-05-19T09:30:08.583Z,21.71
2019-05-19T09:31:08.501Z,21.16
2019-05-19T09:32:08.412Z,21.36
2019-05-19T09:33:08.342Z,21.48
2019-05-19T09:34:08.245Z,21.28
2019-05-19T09:35:08.165Z,21.31
2019-05-19T09:36:08.075Z,21.38
2019-05-19T09:37:07.990Z,21.38
2019-05-19T09:38:07.921Z,21.46
2019-05-19T09:39:07.821Z,21.52
2019-05-19T09:40:07.759Z,21.96
2019-05-19T09:41:07.653Z,22.31
2019-05-19T09:42:07.564Z,22.42
2019-05-19T09:43:07.500Z,22.27
2019-05-19T09:44:07.398Z,22.06
2019-05-19T09:45:07.321Z,22.11
2019-05-19T09:46:07.228Z,22.26
2019-05-19T09:47:07.184Z,21.68
2019-05-19T09:48:07.073Z,22.19
2019-05-19T09:49:06.994Z,22.45
2019-05-19T09:50:06.890Z,22.70
2019-05-19T09:51:06.805Z,23.01
2019-05-19T09:52:06.730Z,22.91
2019-05-19T09:53:06.650Z,23.04
2019-05-19T09:54:06.550Z,23.01
2019-05-19T09:55:06.467Z,23.03
2019-05-19T09:56:06.382Z,23.06
2019-05-19T09:57:06.332Z,22.70
2019-05-19T09:58:06.228Z,22.56
2019-05-19T09:59:06.141Z,22.82
2019-05-19T10:00:06.048Z,22.88
2019-05-19T10:01:05.962Z,22.64
2019-05-19T10:02:05.879Z,22.66
2019-05-19T10:03:05.809Z,22.69
2019-05-19T10:04:07.155Z,22.96
2019-05-19T10:05:05.628Z,23.09
2019-05-19T10:06:05.544Z,23.00
2019-05-19T10:07:06.255Z,23.00
2019-05-19T10:08:05.394Z,22.61
2019-05-19T10:09:05.296Z,22.81
2019-05-19T10:10:05.212Z,23.01
2019-05-19T10:11:05.127Z,23.06
2019-05-19T10:12:05.045Z,22.94
2019-05-19T10:13:04.976Z,23.19
2019-05-19T10:14:04.877Z,23.29
2019-05-19T10:15:04.796Z,23.12
2019-05-19T10:16:04.714Z,23.79
2019-05-19T10:17:04.628Z,24.09
2019-05-19T10:18:04.566Z,23.16
2019-05-19T10:19:04.461Z,23.52
2019-05-19T10:20:04.382Z,24.12
2019-05-19T10:21:04.296Z,23.64
2019-05-19T10:22:04.266Z,24.08
2019-05-19T10:23:04.146Z,23.94
2019-05-19T10:24:04.052Z,24.11
2019-05-19T10:25:20.525Z,23.77
2019-05-19T10:26:03.887Z,23.67
2019-05-19T10:27:03.800Z,23.89
2019-05-19T10:28:03.734Z,23.87
2019-05-19T10:29:03.635Z,23.57
2019-05-19T10:30:03.555Z,23.81
2019-05-19T10:31:03.473Z,24.14
2019-05-19T10:32:03.391Z,24.19
2019-05-19T10:33:03.322Z,24.05
2019-05-19T10:34:03.225Z,23.67
2019-05-19T10:35:03.145Z,23.39
2019-05-19T10:36:03.067Z,23.63
2019-05-19T10:37:02.980Z,23.90
2019-05-19T10:38:02.901Z,23.82
2019-05-19T10:39:02.829Z,23.84
2019-05-19T10:40:02.739Z,23.86
2019-05-19T10:41:02.653Z,24.15
2019-05-19T10:42:02.958Z,24.37
2019-05-19T10:43:02.502Z,24.63
2019-05-19T10:44:02.406Z,24.52
2019-05-19T10:45:02.323Z,24.24
2019-05-19T10:46:02.240Z,24.05
2019-05-19T10:47:02.161Z,24.37
2019-05-19T10:48:02.080Z,23.68
2019-05-19T10:49:02.009Z,23.52
2019-05-19T10:50:01.915Z,23.74
2019-05-19T10:51:01.831Z,23.94
2019-05-19T10:52:01.762Z,24.68
2019-05-19T10:53:01.671Z,24.99
2019-05-19T10:54:01.601Z,25.38
2019-05-19T10:55:01.533Z,25.66
2019-05-19T10:56:01.423Z,25.60
2019-05-19T10:57:01.457Z,25.12
2019-05-19T10:58:01.259Z,24.53
2019-05-19T10:59:01.192Z,23.89
2019-05-19T11:00:01.099Z,24.11
2019-05-19T11:01:01.014Z,24.30
2019-05-19T11:02:00.934Z,24.41
2019-05-19T11:03:00.852Z,24.67
2019-05-19T11:04:00.890Z,24.75
2019-05-19T11:05:00.690Z,24.49
2019-05-19T11:06:00.608Z,24.37
2019-05-19T11:07:00.527Z,24.55
2019-05-19T11:08:00.533Z,24.97
2019-05-19T11:09:00.381Z,25.22
2019-05-19T11:10:00.288Z,25.07
2019-05-19T11:11:00.304Z,24.56
2019-05-19T11:12:00.123Z,24.59
2019-05-19T11:13:00.042Z,24.33
2019-05-19T11:13:59.979Z,24.09
2019-05-19T11:14:59.881Z,24.66
2019-05-19T11:15:59.794Z,25.20
2019-05-19T11:16:59.711Z,25.12
2019-05-19T11:17:59.738Z,25.12
2019-05-19T11:18:59.570Z,24.94
2019-05-19T11:19:59.475Z,24.84
2019-05-19T11:20:59.386Z,25.26
2019-05-19T11:21:59.306Z,24.82
2019-05-19T11:22:59.228Z,24.56
2019-05-19T11:23:59.158Z,25.07
2019-05-19T11:24:59.173Z,25.12
2019-05-19T11:25:58.983Z,25.39
2019-05-19T11:26:58.903Z,25.54
2019-05-19T11:27:58.870Z,25.26
2019-05-19T11:28:58.754Z,24.70
2019-05-19T11:29:58.676Z,24.52
2019-05-19T11:30:58.579Z,24.24
2019-05-19T11:31:58.606Z,24.45
2019-05-19T11:32:58.415Z,24.89
2019-05-19T11:33:58.351Z,25.16
2019-05-19T11:34:58.254Z,25.29
2019-05-19T11:35:58.177Z,25.26
2019-05-19T11:36:58.095Z,24.34
2019-05-19T11:37:58.010Z,24.08
2019-05-19T11:38:58.066Z,23.97
2019-05-19T11:39:57.849Z,23.87
2019-05-19T11:40:57.768Z,23.67
2019-05-19T11:41:57.686Z,23.64
2019-05-19T11:42:57.608Z,23.52
2019-05-19T11:43:57.527Z,23.00
2019-05-19T11:44:57.457Z,22.29
2019-05-19T11:45:57.465Z,21.86
2019-05-19T11:46:57.278Z,21.74
2019-05-19T11:47:57.201Z,21.75
2019-05-19T11:48:57.116Z,21.86
2019-05-19T11:49:57.048Z,21.73
2019-05-19T11:50:56.950Z,21.75
2019-05-19T11:51:56.868Z,21.83
2019-05-19T11:52:56.904Z,21.75
2019-05-19T11:53:56.704Z,21.77
2019-05-19T11:54:56.631Z,21.70
2019-05-19T11:56:06.334Z,21.51
2019-05-19T11:56:56.455Z,21.70
2019-05-19T11:57:56.368Z,21.73
2019-05-19T11:58:56.282Z,21.81
2019-05-19T11:59:56.314Z,21.61
2019-05-19T12:00:56.115Z,21.56
2019-05-19T12:01:56.029Z,21.63
2019-05-19T12:02:55.943Z,21.48
2019-05-19T12:03:55.859Z,21.37
2019-05-19T12:04:55.848Z,21.37
2019-05-19T12:05:55.837Z,21.26
2019-05-19T12:06:55.605Z,21.43
2019-05-19T12:07:55.519Z,21.46
2019-05-19T12:08:55.434Z,21.63
2019-05-19T12:09:55.364Z,21.68
2019-05-19T12:10:55.262Z,21.71
2019-05-19T12:11:55.177Z,21.82
2019-05-19T12:12:55.092Z,21.99
2019-05-19T12:13:55.008Z,21.96
2019-05-19T12:14:54.935Z,22.08
2019-05-19T12:15:54.835Z,22.02
2019-05-19T12:16:54.785Z,21.98
2019-05-19T12:17:54.665Z,22.15
2019-05-19T12:18:57.446Z,22.12
2019-05-19T12:19:54.507Z,22.33
2019-05-19T12:20:54.409Z,22.21
2019-05-19T12:21:54.318Z,22.33
2019-05-19T12:22:54.239Z,22.33
2019-05-19T12:23:54.164Z,22.31
2019-05-19T12:24:54.074Z,22.30
2019-05-19T12:25:53.977Z,22.46
2019-05-19T12:26:53.891Z,22.49
2019-05-19T12:27:53.805Z,22.45
2019-05-19T12:28:53.724Z,22.42
2019-05-19T12:29:53.646Z,22.35
2019-05-19T12:30:53.547Z,22.19
2019-05-19T12:31:53.461Z,22.11
2019-05-19T12:32:53.373Z,22.12
2019-05-19T12:33:53.287Z,22.24
2019-05-19T12:34:53.216Z,22.17
2019-05-19T12:35:53.118Z,22.08
2019-05-19T12:36:53.031Z,22.06
2019-05-19T12:37:52.948Z,21.99
2019-05-19T12:38:52.880Z,21.96
2019-05-19T12:39:52.788Z,21.89
2019-05-19T12:40:52.691Z,21.70
2019-05-19T12:41:52.600Z,21.73
2019-05-19T12:42:52.516Z,21.64
2019-05-19T12:43:52.430Z,21.42
2019-05-19T12:44:52.349Z,21.45
2019-05-19T12:45:52.287Z,21.46
2019-05-19T12:46:52.174Z,21.64
2019-05-19T12:47:52.101Z,21.64
2019-05-19T12:48:52.004Z,21.73
2019-05-19T12:49:51.918Z,21.49
2019-05-19T12:50:51.842Z,21.34